< Typhoon 198609 1986 Season Typhoon 198611 >
Typhoon 198610 (SARAH)
General InformationTrack Information on Google MapsDetailed Wind InformationList of All Images || NewsDisaster Info.ResourceGoogle EarthGE AnimationAtom FeedGeoJSON
Detalied Best Track (Time Zone = UTC)
Year Month Day Hour Lat. Long. Pressure (hPa) Wind (kt) Class Image Chart
1986 7 29 12 14.0 136.5 1002 0 2 Image Chart
1986 7 29 18 14.0 134.8 1002 0 2 Image Chart
1986 7 30 00 14.3 133.3 1002 0 2 Image Chart
1986 7 30 06 14.7 132.0 1000 0 2 Image Chart
1986 7 30 12 15.0 131.0 1000 0 2 Image Chart
1986 7 30 18 15.2 129.5 1000 0 2 Image Chart
1986 7 31 00 15.5 127.9 998 0 2 Image Chart
1986 7 31 06 16.0 126.6 996 0 2 Image Chart
1986 7 31 12 16.4 125.7 994 0 2 Image Chart
1986 7 31 18 16.6 124.9 992 35 3 Image Chart
1986 8 1 00 17.0 124.5 992 45 3 Image Chart
1986 8 1 06 17.3 124.2 992 45 3 Image Chart
1986 8 1 12 17.7 124.4 990 45 3 Image Chart
1986 8 1 18 18.1 124.8 990 45 3 Image Chart
1986 8 2 00 18.5 125.2 985 45 3 Image Chart
1986 8 2 06 19.2 125.7 985 45 3 Image Chart
1986 8 2 12 19.8 126.2 985 45 3 Image Chart
1986 8 2 18 20.4 126.9 985 45 3 Image Chart
1986 8 3 00 21.1 127.8 985 55 4 Image Chart
1986 8 3 06 22.0 129.5 985 55 4 Image Chart
1986 8 3 12 23.5 131.5 985 55 4 Image Chart
1986 8 3 18 26.0 134.0 985 55 4 Image Chart
1986 8 4 00 29.0 135.5 985 50 4 Image Chart
1986 8 4 06 31.5 137.0 980 45 3 Image Chart
1986 8 4 12 33.5 139.0 980 0 6 Image Chart
1986 8 4 18 35.8 140.5 982 0 6 Image Chart
1986 8 5 00 36.5 141.5 982 0 6 Image Chart
1986 8 5 06 37.0 142.5 984 0 6 Image Chart
1986 8 5 12 37.5 143.0 988 0 6 Image Chart
1986 8 5 18 38.0 143.5 992 0 6 Image Chart
1986 8 6 00 38.0 144.0 996 0 6 Image Chart
1986 8 6 06 38.0 144.0 998 0 6 Image Chart
1986 8 6 12 38.0 144.0 1000 0 6 Image Chart
1986 8 6 18 38.0 144.0 1000 0 6 Image Chart
1986 8 7 00 37.0 145.0 1000 0 6 Image Chart
1986 8 7 06 36.0 145.0 1002 0 6 Image Chart
1986 8 7 12 36.0 145.0 1004 0 6 Image Chart
1986 8 7 18 36.0 145.0 1006 0 6 Image Chart
1986 8 8 00 35.0 145.0 1008 0 6 Image Chart
1986 8 8 06 35.0 145.0 1008 0 6 Image Chart
1986 8 8 12 35.0 145.0 1008 0 6 Image Chart
1986 8 8 18 35.0 146.0 1010 0 6 Image Chart
1986 8 9 00 35.0 147.0 1012 0 6 Image Chart
Japan Meteorological Agency Best Track Data | Correction Date : 1992-10-21
< Typhoon 198609 1986 Season Typhoon 198611 >

Help